Time;durP1;ratioP1;P1;durP2;ratioP2;P2;SDS_P1;SDS_P2;PMS_P1;PMS_P2;Temp;Humidity;BMP_temperature;BMP_pressure;BME280_temperature;BME280_humidity;BME280_pressure;Samples;Min_cycle;Max_cycle;Signal;HPM_P1;HPM_P2
2020/12/26 00:01:14;;;;;;;2.38;1.70;;;6.00;76.70;;;;;;5104782;28;19912;-44
2020/12/26 00:03:40;;;;;;;3.53;1.98;;;6.00;76.60;;;;;;5104722;28;20024;-43
2020/12/26 00:06:07;;;;;;;2.78;1.70;;;6.00;76.60;;;;;;5100715;28;20036;-42
2020/12/26 00:08:34;;;;;;;2.90;1.50;;;6.00;76.60;;;;;;5084153;28;20025;-43
2020/12/26 00:11:01;;;;;;;4.50;2.25;;;5.90;76.50;;;;;;5084391;28;20389;-43
2020/12/26 00:13:28;;;;;;;4.05;2.03;;;5.90;76.50;;;;;;5084233;28;20043;-43
2020/12/26 00:15:54;;;;;;;3.60;2.10;;;5.90;76.60;;;;;;5084092;28;20036;-43
2020/12/26 00:18:20;;;;;;;3.33;2.05;;;5.90;76.60;;;;;;5083994;28;20342;-43
2020/12/26 00:20:46;;;;;;;3.08;2.20;;;5.90;76.50;;;;;;5101856;28;20016;-46
2020/12/26 00:23:12;;;;;;;2.67;1.55;;;5.90;76.50;;;;;;5125234;28;20059;-45
2020/12/26 00:25:40;;;;;;;3.97;2.25;;;5.90;76.50;;;;;;5127407;27;20037;-43
2020/12/26 00:28:06;;;;;;;4.95;2.15;;;5.90;76.50;;;;;;5124660;28;20049;-43
2020/12/26 00:30:33;;;;;;;4.20;2.10;;;5.90;76.50;;;;;;5123938;28;20117;-44
2020/12/26 00:32:59;;;;;;;4.15;2.10;;;5.80;76.40;;;;;;5106080;28;20053;-43
2020/12/26 00:35:25;;;;;;;3.92;1.95;;;5.80;76.40;;;;;;5124485;28;20040;-42
2020/12/26 00:37:52;;;;;;;4.32;1.95;;;5.80;76.50;;;;;;5105797;28;20028;-44
2020/12/26 00:40:18;;;;;;;3.63;2.08;;;5.80;76.50;;;;;;5103779;28;20035;-43
2020/12/26 00:42:45;;;;;;;1.92;1.30;;;5.80;76.50;;;;;;5088257;28;20781;-41
2020/12/26 00:45:11;;;;;;;3.25;1.88;;;5.80;76.50;;;;;;5124211;28;20033;-47
2020/12/26 00:47:37;;;;;;;2.47;1.70;;;5.70;76.50;;;;;;5124364;28;20035;-43
2020/12/26 00:50:03;;;;;;;3.10;1.80;;;5.80;76.50;;;;;;5135882;27;20439;-43
2020/12/26 00:52:29;;;;;;;3.30;1.65;;;5.70;76.50;;;;;;5144746;27;20055;-43
2020/12/26 00:54:56;;;;;;;3.00;1.98;;;5.70;76.50;;;;;;5144639;27;20016;-43
2020/12/26 00:57:22;;;;;;;2.50;1.65;;;5.70;76.50;;;;;;5144786;27;20054;-43
2020/12/26 00:59:48;;;;;;;2.70;1.80;;;5.70;76.50;;;;;;5144245;27;20587;-42
2020/12/26 01:02:14;;;;;;;4.47;1.95;;;5.70;76.40;;;;;;5140797;27;20213;-43
2020/12/26 01:04:40;;;;;;;3.22;1.80;;;5.70;76.40;;;;;;5123954;28;20387;-42
2020/12/26 01:07:06;;;;;;;2.38;1.80;;;5.70;76.40;;;;;;5111380;28;20020;-43
2020/12/26 01:09:32;;;;;;;3.22;1.70;;;5.70;76.40;;;;;;5103230;28;20028;-44
2020/12/26 01:11:59;;;;;;;2.60;1.52;;;5.70;76.40;;;;;;5103415;28;20020;-43
2020/12/26 01:14:25;;;;;;;2.15;1.80;;;5.60;76.30;;;;;;5103391;28;20032;-43
2020/12/26 01:16:51;;;;;;;3.38;1.58;;;5.60;76.40;;;;;;5103288;28;20432;-43
2020/12/26 01:19:18;;;;;;;3.03;1.67;;;5.60;76.30;;;;;;5113846;27;20019;-43
2020/12/26 01:21:54;;;;;;;2.08;1.40;;;5.60;76.40;;;;;;5144239;27;20086;-43
2020/12/26 01:24:22;;;;;;;1.63;1.35;;;5.60;76.40;;;;;;5127634;27;20134;-43
2020/12/26 01:26:49;;;;;;;2.63;1.52;;;5.60;76.30;;;;;;5144065;27;20038;-43
2020/12/26 01:29:15;;;;;;;2.63;1.35;;;5.60;76.40;;;;;;5144053;27;20035;-43
2020/12/26 01:31:49;;;;;;;2.28;1.33;;;5.60;76.40;;;;;;5125736;27;20027;-43
2020/12/26 01:34:15;;;;;;;2.05;1.55;;;5.50;76.30;;;;;;5085123;28;20032;-43
2020/12/26 01:36:41;;;;;;;3.03;1.55;;;5.50;76.40;;;;;;5093031;28;20024;-43
2020/12/26 01:39:07;;;;;;;2.53;1.52;;;5.50;76.40;;;;;;5103013;28;20024;-43
2020/12/26 01:41:34;;;;;;;2.47;1.35;;;5.50;76.30;;;;;;5106979;28;20071;-43
2020/12/26 01:44:01;;;;;;;2.30;1.55;;;5.50;76.30;;;;;;5143671;27;20049;-43
2020/12/26 01:46:28;;;;;;;;;;;5.50;76.30;;;;;;5126009;28;20053;-43
2020/12/26 01:48:54;;;;;;;1.85;1.27;;;5.50;76.40;;;;;;5137809;28;20360;-47
2020/12/26 01:51:20;;;;;;;1.85;1.40;;;5.40;76.40;;;;;;5105745;28;20127;-43
2020/12/26 01:53:48;;;;;;;1.83;1.35;;;5.40;76.40;;;;;;5104951;28;20024;-43
2020/12/26 01:56:15;;;;;;;1.92;1.50;;;5.40;76.30;;;;;;5104869;28;20043;-43
2020/12/26 01:58:43;;;;;;;3.08;1.52;;;5.40;76.30;;;;;;5088387;28;20039;-43
2020/12/26 02:01:09;;;;;;;1.33;1.20;;;5.40;76.40;;;;;;5122834;28;20534;-43
2020/12/26 02:03:36;;;;;;;2.55;1.52;;;5.40;76.40;;;;;;5123443;28;20058;-43
2020/12/26 02:06:03;;;;;;;2.47;1.65;;;5.40;76.40;;;;;;5119679;28;20036;-43
2020/12/26 02:08:29;;;;;;;2.10;1.57;;;5.30;76.40;;;;;;5084635;28;20054;-43
2020/12/26 02:10:55;;;;;;;2.15;1.58;;;5.30;76.50;;;;;;5102492;28;20038;-43
2020/12/26 02:13:21;;;;;;;2.40;1.50;;;5.30;77.20;;;;;;5102814;28;20059;-43
2020/12/26 02:16:05;;;;;;;1.83;1.30;;;5.30;76.50;;;;;;5084415;28;20070;-43
2020/12/26 02:18:35;;;;;;;2.75;1.80;;;5.30;76.50;;;;;;5111385;28;20027;-43
2020/12/26 02:21:02;;;;;;;1.58;1.20;;;5.30;76.50;;;;;;5122622;28;20027;-43
2020/12/26 02:23:28;;;;;;;2.42;1.65;;;5.20;76.40;;;;;;5101080;28;20121;-43
2020/12/26 02:25:58;;;;;;;1.20;0.83;;;5.20;76.40;;;;;;5122714;28;20114;-43
2020/12/26 02:28:24;;;;;;;3.72;1.67;;;5.20;76.40;;;;;;5123032;28;20020;-43
2020/12/26 02:30:53;;;;;;;1.90;1.30;;;5.20;76.40;;;;;;5122881;28;20066;-43
2020/12/26 02:33:19;;;;;;;2.47;1.60;;;5.20;76.40;;;;;;5109901;28;20021;-42
2020/12/26 02:35:49;;;;;;;1.88;1.42;;;5.20;76.40;;;;;;5083153;28;20036;-43
2020/12/26 02:38:16;;;;;;;2.05;1.60;;;5.20;76.40;;;;;;5082157;28;20021;-43
2020/12/26 02:40:42;;;;;;;2.83;1.90;;;5.20;76.40;;;;;;5090050;28;20046;-43
2020/12/26 02:43:18;;;;;;;2.35;1.58;;;5.10;76.40;;;;;;5095260;28;20060;-43
2020/12/26 02:45:44;;;;;;;2.03;1.27;;;5.10;76.40;;;;;;5102469;28;20020;-43
2020/12/26 02:48:11;;;;;;;2.97;1.67;;;5.10;76.50;;;;;;5102510;28;20020;-43
2020/12/26 02:50:37;;;;;;;2.85;1.65;;;5.10;76.40;;;;;;5118530;28;20020;-43
2020/12/26 02:53:03;;;;;;;2.00;1.50;;;5.10;76.50;;;;;;5123426;28;20495;-43
2020/12/26 02:55:29;;;;;;;1.92;1.33;;;5.10;76.50;;;;;;5126368;28;20036;-43
2020/12/26 02:57:55;;;;;;;1.60;1.50;;;5.10;76.50;;;;;;5126374;28;20039;-42
2020/12/26 03:00:21;;;;;;;2.28;1.80;;;5.00;76.50;;;;;;5125936;28;20031;-43
2020/12/26 03:02:48;;;;;;;2.03;1.30;;;5.00;76.40;;;;;;5117834;28;20028;-43
2020/12/26 03:05:14;;;;;;;1.70;1.20;;;5.00;76.40;;;;;;5105890;28;20028;-44
2020/12/26 03:07:40;;;;;;;2.50;1.50;;;5.00;76.40;;;;;;5088484;28;20469;-43
2020/12/26 03:10:06;;;;;;;1.90;1.30;;;5.00;76.40;;;;;;5085374;28;20054;-43
2020/12/26 03:12:32;;;;;;;2.55;1.42;;;5.00;76.40;;;;;;5085231;28;20016;-43
2020/12/26 03:14:58;;;;;;;2.65;1.63;;;5.00;76.50;;;;;;5085494;28;20027;-43
2020/12/26 03:17:24;;;;;;;1.83;1.50;;;5.00;76.40;;;;;;5085302;28;20508;-43
2020/12/26 03:19:51;;;;;;;2.08;1.42;;;4.90;76.40;;;;;;5105346;28;20023;-43
2020/12/26 03:22:18;;;;;;;1.60;1.27;;;4.90;77.10;;;;;;5138219;27;20052;-43
2020/12/26 03:24:44;;;;;;;;;;;4.90;76.40;;;;;;5146891;27;20031;-44
2020/12/26 03:27:10;;;;;;;2.55;1.35;;;4.90;76.40;;;;;;5146578;27;19998;-43
2020/12/26 03:29:37;;;;;;;2.17;1.40;;;4.90;76.40;;;;;;5146347;27;20015;-43
2020/12/26 03:32:03;;;;;;;2.45;1.55;;;4.90;76.50;;;;;;5143819;27;20027;-43
2020/12/26 03:34:29;;;;;;;1.73;1.17;;;4.90;76.50;;;;;;5125791;28;20066;-43
2020/12/26 03:36:55;;;;;;;1.70;1.30;;;4.80;76.40;;;;;;5114588;28;20035;-43
2020/12/26 03:39:21;;;;;;;1.95;1.20;;;4.80;76.50;;;;;;5105096;28;20020;-43
2020/12/26 03:41:47;;;;;;;1.98;1.33;;;4.80;76.50;;;;;;5117614;27;20027;-43
2020/12/26 03:44:13;;;;;;;1.67;1.27;;;4.80;76.50;;;;;;5125564;28;20027;-43
2020/12/26 03:46:40;;;;;;;1.90;1.50;;;4.80;76.50;;;;;;5125171;28;20036;-42
2020/12/26 03:49:06;;;;;;;1.75;1.40;;;4.80;76.50;;;;;;5129230;27;20083;-43
2020/12/26 03:51:32;;;;;;;1.95;1.48;;;4.80;76.50;;;;;;5142986;27;20073;-43
2020/12/26 03:53:58;;;;;;;2.63;1.45;;;4.80;76.50;;;;;;5145983;27;20042;-43
2020/12/26 03:56:25;;;;;;;2.53;1.48;;;4.80;76.50;;;;;;5145551;27;20064;-43
2020/12/26 03:58:51;;;;;;;1.80;1.23;;;4.70;76.50;;;;;;5145855;27;20027;-43
2020/12/26 04:01:17;;;;;;;2.03;1.20;;;4.70;76.50;;;;;;5145376;27;20266;-43
2020/12/26 04:03:43;;;;;;;1.55;1.42;;;4.70;76.60;;;;;;5129281;27;20444;-43
2020/12/26 04:06:09;;;;;;;1.77;1.40;;;4.70;76.70;;;;;;5119772;28;20036;-47
2020/12/26 04:08:35;;;;;;;1.90;1.30;;;4.70;76.60;;;;;;5104544;28;20101;-47
2020/12/26 04:11:01;;;;;;;2.38;1.58;;;4.70;76.70;;;;;;5104569;28;20084;-43
2020/12/26 04:13:28;;;;;;;1.80;1.30;;;4.70;76.60;;;;;;5104371;28;20020;-43
2020/12/26 04:15:54;;;;;;;2.17;1.58;;;4.70;76.60;;;;;;5104273;28;20098;-43
2020/12/26 04:18:20;;;;;;;1.20;1.10;;;4.60;77.30;;;;;;5086236;28;20032;-43
2020/12/26 04:20:46;;;;;;;1.58;1.20;;;4.60;77.30;;;;;;5140269;27;20012;-43
2020/12/26 04:23:12;;;;;;;1.40;1.30;;;4.60;76.60;;;;;;5145077;27;20066;-42
2020/12/26 04:25:38;;;;;;;1.83;1.17;;;4.60;76.60;;;;;;5145143;27;20050;-43
2020/12/26 04:28:04;;;;;;;2.35;1.40;;;4.60;76.70;;;;;;5140313;27;20027;-43
2020/12/26 04:30:31;;;;;;;2.85;1.30;;;4.60;76.70;;;;;;5124500;28;20076;-43
2020/12/26 04:32:57;;;;;;;1.70;1.40;;;4.60;76.70;;;;;;5124408;28;20034;-42
2020/12/26 04:35:23;;;;;;;1.52;1.35;;;4.60;76.70;;;;;;5124398;28;20028;-43
2020/12/26 04:37:49;;;;;;;1.00;0.90;;;4.50;76.70;;;;;;5105802;28;20062;-42
2020/12/26 04:40:16;;;;;;;1.23;1.10;;;4.50;76.70;;;;;;5104056;28;20028;-43
2020/12/26 04:42:42;;;;;;;2.17;1.33;;;4.50;76.70;;;;;;5103751;28;20032;-42
2020/12/26 04:45:09;;;;;;;1.60;1.15;;;4.50;76.70;;;;;;5085893;28;20032;-42
2020/12/26 04:47:43;;;;;;;1.92;1.15;;;4.50;76.70;;;;;;5103967;28;20028;-42
2020/12/26 04:50:09;;;;;;;1.55;1.20;;;4.50;76.80;;;;;;5100885;28;20055;-42
2020/12/26 04:52:36;;;;;;;1.83;1.23;;;4.50;76.70;;;;;;5105588;28;20031;-42
2020/12/26 04:55:04;;;;;;;1.50;1.23;;;4.50;76.70;;;;;;5123980;28;20028;-42
2020/12/26 04:57:34;;;;;;;1.38;1.10;;;4.40;76.80;;;;;;5124097;28;20069;-42
2020/12/26 05:00:01;;;;;;;1.42;1.15;;;4.40;76.80;;;;;;5124041;28;20396;-42
2020/12/26 05:02:29;;;;;;;2.40;1.20;;;4.40;76.80;;;;;;5118062;28;20377;-42
2020/12/26 05:04:56;;;;;;;1.58;1.17;;;4.40;76.80;;;;;;5118749;28;20047;-42
2020/12/26 05:07:22;;;;;;;1.58;1.20;;;4.40;76.80;;;;;;5118940;28;20016;-42
2020/12/26 05:09:48;;;;;;;1.65;1.27;;;4.40;76.80;;;;;;5103348;28;20035;-43
2020/12/26 05:12:14;;;;;;;1.15;1.00;;;4.40;76.80;;;;;;5103037;28;20032;-42
2020/12/26 05:14:40;;;;;;;1.50;0.90;;;4.40;76.80;;;;;;5103201;28;20028;-42
2020/12/26 05:17:06;;;;;;;1.25;1.15;;;4.30;76.70;;;;;;5103105;28;20054;-42
2020/12/26 05:19:33;;;;;;;1.52;1.10;;;4.30;76.80;;;;;;5118346;27;20020;-42
2020/12/26 05:21:59;;;;;;;1.85;1.52;;;4.30;76.80;;;;;;5144019;27;20051;-42
2020/12/26 05:24:25;;;;;;;1.67;1.17;;;4.30;76.80;;;;;;5144017;27;20023;-42
2020/12/26 05:26:52;;;;;;;1.95;1.00;;;4.30;76.80;;;;;;5144156;27;20035;-42
2020/12/26 05:29:22;;;;;;;1.52;1.27;;;4.30;76.80;;;;;;5144205;27;20083;-42
2020/12/26 05:31:53;;;;;;;1.77;1.20;;;4.30;76.80;;;;;;5143770;27;20035;-42
2020/12/26 05:34:20;;;;;;;1.27;1.17;;;4.30;76.90;;;;;;5123277;28;20051;-43
2020/12/26 05:36:46;;;;;;;1.65;1.40;;;4.20;76.90;;;;;;5113895;28;20032;-42
2020/12/26 05:39:12;;;;;;;1.42;0.95;;;4.30;76.90;;;;;;5103237;28;20028;-42
2020/12/26 05:41:42;;;;;;;1.70;1.17;;;4.20;76.90;;;;;;5122163;27;20019;-42
2020/12/26 05:44:09;;;;;;;1.95;1.10;;;4.20;76.90;;;;;;5143772;27;20019;-42
2020/12/26 05:46:35;;;;;;;1.90;1.10;;;4.20;76.90;;;;;;5143622;27;20842;-42
2020/12/26 05:49:21;;;;;;;1.88;1.20;;;4.20;76.90;;;;;;5140521;28;20036;-42
2020/12/26 05:51:48;;;;;;;1.92;1.15;;;4.20;77.00;;;;;;5123202;28;20054;-42
2020/12/26 05:54:16;;;;;;;1.20;1.10;;;4.20;77.00;;;;;;5088265;28;20027;-42
2020/12/26 05:56:42;;;;;;;2.08;1.35;;;4.20;77.10;;;;;;5119174;28;20557;-42
2020/12/26 05:59:28;;;;;;;2.13;0.90;;;4.10;76.90;;;;;;5123059;28;20035;-43
2020/12/26 06:02:00;;;;;;;1.50;1.08;;;4.20;77.00;;;;;;5122126;28;20023;-42
2020/12/26 06:04:26;;;;;;;1.50;1.05;;;4.10;76.90;;;;;;5102639;28;20028;-42
2020/12/26 06:06:52;;;;;;;1.10;1.00;;;4.10;77.00;;;;;;5084611;28;20020;-42
2020/12/26 06:09:20;;;;;;;1.33;0.95;;;4.10;76.90;;;;;;5102711;28;20059;-42
2020/12/26 06:11:49;;;;;;;1.00;0.90;;;4.10;77.00;;;;;;5102411;28;20062;-42
2020/12/26 06:14:19;;;;;;;1.38;1.08;;;4.10;77.00;;;;;;5102554;28;20048;-42
2020/12/26 06:16:53;;;;;;;1.33;1.23;;;4.10;77.00;;;;;;5102478;28;20103;-42
2020/12/26 06:19:20;;;;;;;1.67;1.17;;;4.10;77.00;;;;;;5101315;28;20102;-42
2020/12/26 06:21:49;;;;;;;1.20;0.95;;;4.10;77.00;;;;;;5101009;28;20132;-43
2020/12/26 06:24:15;;;;;;;1.50;1.02;;;4.00;77.00;;;;;;5102242;28;20035;-41
2020/12/26 06:26:46;;;;;;;1.50;0.93;;;4.00;77.00;;;;;;5101214;28;20031;-42
2020/12/26 06:29:15;;;;;;;1.20;1.00;;;4.00;77.00;;;;;;5105079;28;20032;-42
2020/12/26 06:31:43;;;;;;;1.40;0.93;;;4.00;77.10;;;;;;5121897;28;20097;-42
2020/12/26 06:34:09;;;;;;;1.60;1.20;;;4.00;77.20;;;;;;5125413;27;20115;-42
2020/12/26 06:36:36;;;;;;;1.13;1.02;;;4.00;77.10;;;;;;5108136;28;20045;-42
2020/12/26 06:39:06;;;;;;;1.48;1.20;;;4.00;77.10;;;;;;5108379;28;20784;-42
2020/12/26 06:41:32;;;;;;;1.00;0.80;;;3.90;77.10;;;;;;5114027;28;20032;-42
2020/12/26 06:43:58;;;;;;;1.30;1.20;;;3.90;77.00;;;;;;5126413;28;20099;-42
2020/12/26 06:46:27;;;;;;;1.73;1.15;;;3.90;77.10;;;;;;5126711;28;20543;-42
2020/12/26 06:48:57;;;;;;;1.70;1.10;;;3.90;77.10;;;;;;5128496;27;20032;-42
2020/12/26 06:51:28;;;;;;;1.48;1.00;;;3.90;77.10;;;;;;5147115;27;20031;-42
2020/12/26 06:54:07;;;;;;;1.55;0.90;;;3.90;77.10;;;;;;5146856;27;20027;-42
2020/12/26 06:56:36;;;;;;;1.30;0.82;;;3.90;77.10;;;;;;5146848;27;20106;-42
2020/12/26 06:59:09;;;;;;;1.58;1.00;;;3.90;77.10;;;;;;5146914;27;20412;-42
2020/12/26 07:01:37;;;;;;;1.83;1.10;;;3.90;77.10;;;;;;5146874;27;20023;-42
2020/12/26 07:04:17;;;;;;;1.13;1.02;;;3.80;77.10;;;;;;5127117;27;20039;-41
2020/12/26 07:06:46;;;;;;;2.13;1.27;;;3.80;77.20;;;;;;5116957;28;20020;-42
2020/12/26 07:09:14;;;;;;;0.80;0.80;;;3.80;77.80;;;;;;5105785;28;20031;-42
2020/12/26 07:11:43;;;;;;;;;;;3.80;77.10;;;;;;5106092;28;20058;-42
2020/12/26 07:14:26;;;;;;;1.13;0.90;;;3.80;77.20;;;;;;5087250;28;19908;-42
2020/12/26 07:16:52;;;;;;;1.10;1.00;;;3.80;77.20;;;;;;5087033;28;20032;-42
2020/12/26 07:19:24;;;;;;;1.17;0.95;;;3.80;77.20;;;;;;5105831;28;20035;-42
2020/12/26 07:21:57;;;;;;;1.02;0.90;;;3.80;77.10;;;;;;5096323;28;20059;-42
2020/12/26 07:24:32;;;;;;;1.77;1.10;;;3.80;77.20;;;;;;5085027;28;20029;-42
2020/12/26 07:27:35;;;;;;;1.13;0.90;;;3.70;77.20;;;;;;5084996;28;20024;-42
2020/12/26 07:30:17;;;;;;;1.27;1.05;;;3.70;77.10;;;;;;5085084;28;20087;-42
2020/12/26 07:32:53;;;;;;;1.17;1.02;;;3.70;77.20;;;;;;5092794;28;20024;-42
2020/12/26 07:35:23;;;;;;;1.30;0.90;;;3.70;77.20;;;;;;5105069;28;20128;-42
2020/12/26 07:38:04;;;;;;;1.35;1.00;;;3.70;77.20;;;;;;5104812;28;20027;-42
2020/12/26 07:40:31;;;;;;;1.48;1.20;;;3.70;77.20;;;;;;5103609;28;20036;-42
2020/12/26 07:42:59;;;;;;;1.50;1.20;;;3.70;77.20;;;;;;5105236;28;20054;-42
2020/12/26 07:45:26;;;;;;;1.00;0.80;;;3.70;77.30;;;;;;5104802;28;20028;-42
2020/12/26 07:47:56;;;;;;;1.58;1.17;;;3.70;77.30;;;;;;5104867;28;20028;-42
2020/12/26 07:50:25;;;;;;;1.45;1.10;;;3.60;77.30;;;;;;5104826;28;20032;-42
2020/12/26 07:52:52;;;;;;;1.40;1.00;;;3.60;77.30;;;;;;5104925;28;20020;-41
2020/12/26 07:55:19;;;;;;;1.05;0.93;;;3.60;77.30;;;;;;5086320;28;20031;-42
2020/12/26 07:57:45;;;;;;;1.10;1.00;;;3.60;77.30;;;;;;5105028;28;20059;-42
2020/12/26 08:00:28;;;;;;;1.25;1.13;;;3.60;77.30;;;;;;5105037;28;20048;-42
2020/12/26 08:02:57;;;;;;;1.40;1.17;;;3.60;77.30;;;;;;5086541;28;20032;-42
2020/12/26 08:05:30;;;;;;;1.85;1.00;;;3.60;77.30;;;;;;5104348;28;20020;-43
2020/12/26 08:07:57;;;;;;;0.82;0.80;;;3.60;77.40;;;;;;5104659;28;20024;-42
2020/12/26 08:10:23;;;;;;;1.35;1.13;;;3.60;77.30;;;;;;5104614;28;20047;-42
2020/12/26 08:12:57;;;;;;;1.50;0.90;;;3.60;77.40;;;;;;5086306;28;20036;-42
2020/12/26 08:15:25;;;;;;;1.98;1.05;;;3.60;77.30;;;;;;5104235;28;20024;-42
2020/12/26 08:17:58;;;;;;;1.30;1.10;;;3.50;77.30;;;;;;5086255;28;20069;-42
2020/12/26 08:20:26;;;;;;;1.33;1.20;;;3.50;77.30;;;;;;5104466;28;20059;-42
2020/12/26 08:22:51;;;;;;;;;;;3.50;77.30;;;;;;5104667;28;20048;-42
2020/12/26 08:25:19;;;;;;;1.10;0.98;;;3.50;77.30;;;;;;5104059;28;19908;-41
2020/12/26 08:27:45;;;;;;;0.88;0.75;;;3.50;77.30;;;;;;5104352;28;20032;-42
2020/12/26 08:30:18;;;;;;;2.10;0.93;;;3.50;77.40;;;;;;5104305;28;20046;-42
2020/12/26 08:32:56;;;;;;;1.13;0.82;;;3.50;77.40;;;;;;5095924;28;20032;-42
2020/12/26 08:35:23;;;;;;;;;;;3.50;77.40;;;;;;5084085;28;20031;-41
2020/12/26 08:37:53;;;;;;;1.42;0.90;;;3.40;77.40;;;;;;5101963;28;19946;-42
2020/12/26 08:40:19;;;;;;;1.20;1.00;;;3.50;77.50;;;;;;5100914;28;20038;-42
2020/12/26 08:42:46;;;;;;;1.13;0.90;;;3.40;77.40;;;;;;5093705;28;20024;-42
2020/12/26 08:45:34;;;;;;;1.73;1.10;;;3.40;77.40;;;;;;5102585;28;20592;-42
2020/12/26 08:48:20;;;;;;;1.38;1.10;;;3.40;77.40;;;;;;5103924;28;20024;-42
2020/12/26 08:51:00;;;;;;;1.50;1.10;;;3.40;77.40;;;;;;5103618;28;20020;-42
2020/12/26 08:53:26;;;;;;;1.38;0.85;;;3.40;77.40;;;;;;5103942;28;20066;-42
2020/12/26 08:55:56;;;;;;;1.53;1.00;;;3.40;77.40;;;;;;5103577;28;20024;-42
2020/12/26 08:58:32;;;;;;;1.27;0.98;;;3.40;77.50;;;;;;5103835;28;20091;-42
2020/12/26 09:01:04;;;;;;;1.10;1.00;;;3.40;77.60;;;;;;5103540;28;20090;-42
2020/12/26 09:03:34;;;;;;;1.02;0.85;;;3.40;77.50;;;;;;5103545;28;20024;-42
2020/12/26 09:06:01;;;;;;;1.52;1.00;;;3.30;77.50;;;;;;5100262;28;20033;-42
2020/12/26 09:08:28;;;;;;;;;;;3.40;77.50;;;;;;5083640;28;20029;-42
2020/12/26 09:11:02;;;;;;;0.80;0.80;;;3.30;77.50;;;;;;5083360;28;19908;-42
2020/12/26 09:13:33;;;;;;;1.38;1.00;;;3.30;77.50;;;;;;5083291;28;20020;-42
2020/12/26 09:16:19;;;;;;;0.90;0.68;;;3.30;77.50;;;;;;5083007;28;20029;-42
2020/12/26 09:18:49;;;;;;;1.00;0.82;;;3.30;77.50;;;;;;5083068;28;20393;-42
2020/12/26 09:21:26;;;;;;;1.00;0.90;;;3.30;77.60;;;;;;5069366;28;20054;-42
2020/12/26 09:23:53;;;;;;;1.20;0.90;;;3.30;77.60;;;;;;5103433;28;20028;-42
2020/12/26 09:26:24;;;;;;;1.10;1.00;;;3.30;77.60;;;;;;5103046;28;20040;-42
2020/12/26 09:28:52;;;;;;;1.08;0.90;;;3.30;77.60;;;;;;5103272;28;20071;-42
2020/12/26 09:31:23;;;;;;;1.63;1.00;;;3.20;77.50;;;;;;5101686;27;20023;-42
2020/12/26 09:33:49;;;;;;;0.90;0.80;;;3.30;77.60;;;;;;5126956;27;20023;-42
2020/12/26 09:36:17;;;;;;;1.43;1.03;;;3.20;78.30;;;;;;5118202;28;20020;-42
2020/12/26 09:38:43;;;;;;;2.75;0.98;;;3.20;77.60;;;;;;5085009;28;20269;-42
2020/12/26 09:41:30;;;;;;;0.82;0.77;;;3.20;77.70;;;;;;5103309;28;20031;-42
2020/12/26 09:43:56;;;;;;;1.17;0.90;;;3.20;77.70;;;;;;5104090;28;20030;-42
2020/12/26 09:46:23;;;;;;;1.13;0.80;;;3.20;77.70;;;;;;5122979;28;20024;-42
2020/12/26 09:48:49;;;;;;;1.60;1.10;;;3.20;77.70;;;;;;5124829;28;20055;-42
2020/12/26 09:51:22;;;;;;;1.65;1.10;;;3.20;77.70;;;;;;5144060;28;20038;-42
2020/12/26 09:53:48;;;;;;;1.52;1.00;;;3.20;77.70;;;;;;5144021;28;20034;-42
2020/12/26 09:56:14;;;;;;;1.15;1.05;;;3.10;77.60;;;;;;5143643;28;20031;-42
2020/12/26 09:58:41;;;;;;;1.67;1.17;;;3.20;77.70;;;;;;5140592;28;20034;-42
2020/12/26 10:01:07;;;;;;;;;;;3.10;77.60;;;;;;5144427;28;20039;-42
2020/12/26 10:03:34;;;;;;;1.10;1.00;;;3.10;77.60;;;;;;5130434;27;19907;-42
2020/12/26 10:06:00;;;;;;;1.30;1.00;;;3.10;77.60;;;;;;5124015;28;20055;-42
2020/12/26 10:08:29;;;;;;;1.35;0.82;;;3.10;77.70;;;;;;5107128;28;20028;-42
2020/12/26 10:10:56;;;;;;;1.50;0.90;;;3.10;77.60;;;;;;5107030;28;20392;-42
2020/12/26 10:13:22;;;;;;;1.45;1.05;;;3.10;77.70;;;;;;5089073;28;20032;-43
2020/12/26 10:15:49;;;;;;;1.10;1.00;;;3.10;77.70;;;;;;5106688;28;20044;-42
2020/12/26 10:18:15;;;;;;;0.98;0.85;;;3.10;77.70;;;;;;5106631;28;20032;-42
2020/12/26 10:20:41;;;;;;;1.30;1.02;;;3.10;77.80;;;;;;5107001;28;20039;-42
2020/12/26 10:23:09;;;;;;;1.05;0.90;;;3.00;77.70;;;;;;5086954;28;20052;-42
2020/12/26 10:25:36;;;;;;;1.00;0.80;;;3.00;77.70;;;;;;5086533;28;20033;-47
2020/12/26 10:28:03;;;;;;;1.10;1.00;;;3.00;77.70;;;;;;5086191;28;20020;-42
2020/12/26 10:30:29;;;;;;;0.68;0.68;;;3.00;77.70;;;;;;5086324;28;20037;-42
2020/12/26 10:32:55;;;;;;;1.58;0.80;;;3.00;77.70;;;;;;5095681;28;20042;-42
2020/12/26 10:35:21;;;;;;;0.88;0.80;;;3.00;77.70;;;;;;5106612;28;20043;-42
2020/12/26 10:37:47;;;;;;;1.48;1.00;;;3.00;77.80;;;;;;5088061;28;20044;-42
2020/12/26 10:40:13;;;;;;;1.35;1.17;;;3.00;77.80;;;;;;5092571;28;20020;-42
2020/12/26 10:42:40;;;;;;;1.20;0.90;;;3.00;77.80;;;;;;5106358;28;20032;-42
2020/12/26 10:45:06;;;;;;;1.08;0.90;;;3.00;77.80;;;;;;5106342;28;20050;-42
2020/12/26 10:47:32;;;;;;;1.20;0.90;;;3.00;77.80;;;;;;5105626;28;20021;-42
2020/12/26 10:49:58;;;;;;;0.70;0.70;;;3.00;77.80;;;;;;5106392;28;20036;-42
2020/12/26 10:52:24;;;;;;;0.90;0.90;;;2.90;77.80;;;;;;5106065;28;20024;-42
2020/12/26 10:54:51;;;;;;;1.23;0.70;;;3.00;77.80;;;;;;5106353;28;20028;-42
2020/12/26 10:57:17;;;;;;;0.93;0.93;;;2.90;77.80;;;;;;5105803;28;20036;-42
2020/12/26 10:59:43;;;;;;;1.27;1.10;;;2.90;77.70;;;;;;5106057;28;20035;-42
2020/12/26 11:02:09;;;;;;;1.60;1.00;;;2.90;77.80;;;;;;5106134;28;20047;-42
2020/12/26 11:04:36;;;;;;;1.25;0.98;;;2.90;77.80;;;;;;5106033;28;20048;-42
2020/12/26 11:07:03;;;;;;;0.80;0.80;;;2.90;77.80;;;;;;5093982;28;20027;-42
2020/12/26 11:09:29;;;;;;;1.40;1.00;;;2.90;77.90;;;;;;5085662;28;20040;-42
2020/12/26 11:11:55;;;;;;;2.53;0.75;;;2.90;77.90;;;;;;5085552;28;20102;-42
2020/12/26 11:14:21;;;;;;;0.80;0.80;;;2.90;77.90;;;;;;5085441;28;20056;-41
2020/12/26 11:16:51;;;;;;;1.48;0.77;;;2.90;77.90;;;;;;5085098;28;20033;-41
2020/12/26 11:19:17;;;;;;;1.13;0.80;;;2.90;77.90;;;;;;5085491;28;20459;-42
2020/12/26 11:21:43;;;;;;;0.63;0.63;;;2.90;77.80;;;;;;5067336;28;20497;-42
2020/12/26 11:24:10;;;;;;;1.10;1.00;;;2.80;77.80;;;;;;5085485;28;20111;-42
2020/12/26 11:26:37;;;;;;;1.48;0.70;;;2.80;77.90;;;;;;5084187;28;20064;-42
2020/12/26 11:29:03;;;;;;;1.02;0.80;;;2.80;77.80;;;;;;5084983;28;20032;-42
2020/12/26 11:31:30;;;;;;;0.95;0.80;;;2.80;77.90;;;;;;5085487;28;20041;-42
2020/12/26 11:33:56;;;;;;;1.35;0.77;;;2.80;77.80;;;;;;5085111;28;20023;-42
2020/12/26 11:36:23;;;;;;;1.88;0.90;;;2.80;77.80;;;;;;5105190;28;20059;-42
2020/12/26 11:38:50;;;;;;;0.93;0.80;;;2.80;77.90;;;;;;5105196;28;20039;-42
2020/12/26 11:41:22;;;;;;;0.88;0.80;;;2.80;78.00;;;;;;5105462;28;20016;-42
2020/12/26 11:43:48;;;;;;;1.40;0.80;;;2.80;78.00;;;;;;5105315;28;20110;-42
2020/12/26 11:46:14;;;;;;;0.88;0.70;;;2.80;78.00;;;;;;5105290;28;20027;-41
2020/12/26 11:48:41;;;;;;;1.00;0.80;;;2.80;78.00;;;;;;5104766;28;20016;-42
2020/12/26 11:51:07;;;;;;;0.82;0.80;;;2.70;78.00;;;;;;5105280;28;20040;-42
2020/12/26 11:53:33;;;;;;;1.80;0.85;;;2.70;77.90;;;;;;5105111;28;20032;-42
2020/12/26 11:56:00;;;;;;;0.80;0.80;;;2.70;78.00;;;;;;5104909;28;20806;-41
2020/12/26 11:58:26;;;;;;;0.70;0.70;;;2.70;78.00;;;;;;5086706;28;20404;-42
2020/12/26 12:00:53;;;;;;;0.80;0.80;;;2.70;78.00;;;;;;5104788;28;20092;-42
2020/12/26 12:03:19;;;;;;;0.57;0.57;;;2.70;78.00;;;;;;5104613;28;20091;-42
2020/12/26 12:05:46;;;;;;;1.13;0.93;;;2.70;78.00;;;;;;5085884;28;20032;-41
2020/12/26 12:08:13;;;;;;;0.80;0.80;;;2.70;78.00;;;;;;5066335;28;20020;-41
2020/12/26 12:10:40;;;;;;;1.92;1.00;;;2.70;78.00;;;;;;5084658;28;20060;-41
2020/12/26 12:13:06;;;;;;;1.15;0.98;;;2.70;78.00;;;;;;5066637;28;20572;-42
2020/12/26 12:15:33;;;;;;;0.90;0.73;;;2.70;78.00;;;;;;5066648;28;20072;-42
2020/12/26 12:18:02;;;;;;;0.70;0.70;;;2.70;78.00;;;;;;5084185;28;20033;-41
2020/12/26 12:20:29;;;;;;;1.08;0.90;;;2.70;78.10;;;;;;5084366;28;20764;-42
2020/12/26 12:22:55;;;;;;;0.80;0.80;;;2.70;78.10;;;;;;5084281;28;20182;-42
2020/12/26 12:25:21;;;;;;;1.23;1.00;;;2.60;78.00;;;;;;5083772;28;20037;-41
2020/12/26 12:27:48;;;;;;;0.75;0.70;;;2.60;78.00;;;;;;5083816;28;20039;-46
2020/12/26 12:30:14;;;;;;;0.70;0.70;;;2.60;78.00;;;;;;5084305;28;20066;-41
2020/12/26 12:32:40;;;;;;;1.45;1.13;;;2.70;78.80;;;;;;5091390;28;20265;-41
2020/12/26 12:35:06;;;;;;;1.42;0.88;;;2.70;78.10;;;;;;5104422;28;20080;-42
2020/12/26 12:37:33;;;;;;;1.03;0.90;;;2.60;78.00;;;;;;5088211;28;20028;-41
2020/12/26 12:39:59;;;;;;;1.13;0.73;;;2.60;78.00;;;;;;5088253;28;20016;-42
2020/12/26 12:42:28;;;;;;;1.10;0.70;;;2.60;78.00;;;;;;5104297;28;20496;-42
2020/12/26 12:44:55;;;;;;;0.80;0.77;;;2.60;78.10;;;;;;5104156;28;20039;-41
2020/12/26 12:47:27;;;;;;;1.20;0.93;;;2.60;78.10;;;;;;5104094;28;20552;-42
2020/12/26 12:49:54;;;;;;;1.00;0.82;;;2.60;78.10;;;;;;5085979;28;20051;-41
2020/12/26 12:52:20;;;;;;;1.02;0.93;;;2.60;78.10;;;;;;5104085;28;20066;-41
2020/12/26 12:54:46;;;;;;;1.30;0.90;;;2.60;78.10;;;;;;5104199;28;20035;-41
2020/12/26 12:57:13;;;;;;;1.50;1.00;;;2.60;78.10;;;;;;5103863;28;20031;-42
2020/12/26 12:59:39;;;;;;;1.10;0.85;;;2.50;78.10;;;;;;5103720;28;20024;-41
2020/12/26 13:02:06;;;;;;;1.10;0.73;;;2.50;78.10;;;;;;5103795;28;20028;-42